EDT,Max TemperatureF,Mean TemperatureF,Min TemperatureF,Max Dew PointF,MeanDew PointF,Min DewpointF,Max Humidity, Mean Humidity, Min Humidity, Max Sea Level PressureIn, Mean Sea Level PressureIn, Min Sea Level PressureIn, Max VisibilityMiles, Mean VisibilityMiles, Min VisibilityMiles, Max Wind SpeedMPH, Mean Wind SpeedMPH, Max Gust SpeedMPH,PrecipitationIn, CloudCover, Events, WindDirDegrees
2013-9-1,69,62,54,68,64,52,100,96,89,29.83,29.75,29.68,10,8,1,20,7,26,1.08,5,Rain,191
2013-9-2,57,54,51,51,49,47,92,81,70,29.96,29.88,29.79,10,10,7,20,14,28,0.00,8,,320
2013-9-3,72,60,47,59,54,47,100,81,48,30.01,29.95,29.90,10,9,0,14,8,20,0.00,1,Fog,259
2013-9-4,65,55,44,58,49,41,92,74,47,30.18,30.03,29.88,10,10,10,15,7,22,0.00,2,,328
2013-9-5,63,52,40,53,45,39,97,76,53,30.32,30.26,30.18,10,10,10,12,4,18,0.00,0,,229
2013-9-6,69,60,50,64,58,50,99,86,60,30.21,30.09,29.93,10,10,5,15,6,22,0.09,2,Rain,210
2013-9-7,81,69,56,70,64,53,97,86,67,30.07,29.90,29.84,10,10,7,14,6,21,0.00,5,,327
2013-9-8,65,56,48,55,51,47,99,85,62,30.18,30.11,30.03,10,10,3,13,5,17,0.00,0,,71
2013-9-9,66,61,56,65,61,54,99,93,84,30.03,29.89,29.72,10,8,1,12,6,18,0.00,7,Rain,177
2013-9-10,81,73,64,72,67,64,100,92,70,29.91,29.80,29.70,10,7,0,13,3,18,0.02,6,Fog-Rain,217
2013-9-11,76,67,58,67,64,59,100,91,67,29.95,29.92,29.88,10,9,0,14,4,20,0.10,3,Fog-Rain,237
2013-9-12,60,54,47,59,51,43,99,85,65,30.11,30.01,29.91,10,10,7,21,9,30,0.00,5,Rain,326
2013-9-13,59,48,38,45,39,34,95,71,40,30.21,30.17,30.12,10,10,10,16,8,22,0.00,3,,346
2013-9-14,65,50,34,55,46,34,98,79,54,30.14,30.05,29.95,10,10,10,16,4,24,0.00,0,,217
2013-9-15,61,50,39,56,50,38,95,85,75,30.26,30.04,29.94,10,10,4,18,6,30,0.00,6,Rain,297
2013-9-16,59,45,31,43,38,31,99,79,48,30.44,30.37,30.26,10,10,7,9,4,,0.00,0,,24
2013-9-17,62,48,33,53,46,32,99,80,65,30.37,30.29,30.14,10,10,10,14,4,21,0.00,2,,189
2013-9-18,63,60,56,62,58,51,98,91,76,30.14,30.01,29.91,10,9,2,10,7,16,0.07,6,Rain,178
2013-9-19,68,65,62,65,63,61,100,93,88,29.92,29.84,29.72,10,8,2,15,7,23,0.00,8,Rain,192
2013-9-20,69,62,54,67,62,54,100,96,83,29.73,29.67,29.63,10,7,0,13,6,20,0.37,8,Fog-Rain,247
2013-9-21,55,48,40,54,45,39,99,86,64,29.94,29.81,29.73,10,10,4,16,7,24,0.07,7,Rain,312
2013-9-22,53,44,35,41,38,35,97,80,55,30.11,30.05,29.93,10,10,10,10,5,,0.00,7,,329
2013-9-23,57,46,36,45,42,36,99,82,64,30.18,30.14,30.11,10,10,7,9,3,,0.00,6,,159
2013-9-24,62,49,36,53,46,36,99,86,64,30.13,30.08,30.03,10,8,0,9,2,,0.00,2,Fog,171
2013-9-25,63,50,38,57,47,38,100,92,72,30.05,30.03,30.01,10,5,0,9,2,,0.00,4,Fog,120
2013-9-26,65,50,35,59,49,35,100,92,74,30.12,30.10,30.03,10,8,0,9,2,,0.00,2,Fog,133
2013-9-27,68,54,40,59,53,40,100,88,71,30.19,30.15,30.11,10,8,0,12,3,16,0.00,1,Fog,162
2013-9-28,69,62,54,61,58,54,98,82,70,30.11,29.99,29.78,10,10,4,17,9,25,0.02,1,Rain,156
2013-9-29,64,56,48,61,51,47,97,82,55,30.01,29.95,29.81,10,10,4,15,8,18,0.10,1,Rain,239
2013-9-30,65,60,55,58,55,53,97,84,66,29.99,29.90,29.81,10,10,10,15,7,23,0.00,1,,194